Buka Airport


Codes: AYBK/BUA
Name: Buka Airport
City: Buka Island
Country: Papua New Guinea
Elevation: 11 ft.
Wikipedia:

Photos at Buka Airport


   Photos courtesy of SpottingLog. You can add your own sightings and photos by signing up for a free trial today.



No photos found.

Weather at Buka Airport


Time (UTC)DescriptionTempratureWindCloud coverageVisibilityPressureHumidity
16-Jun-2024 00:00Light Rain28°C2 mph, 89%10000m1011hPa72%
16-Jun-2024 03:00Light Rain28°C2 mph, NE81%10000m1011hPa73%
16-Jun-2024 06:00Light Rain28°C2 mph, S66%10000m1010hPa74%
16-Jun-2024 09:00Light Rain27°C4 mph, S61%10000m1011hPa79%
16-Jun-2024 12:00Broken Clouds27°C4 mph, SE76%10000m1011hPa79%
16-Jun-2024 15:00Broken Clouds27°C2 mph, SE81%10000m1010hPa80%
16-Jun-2024 18:00Broken Clouds27°C4 mph, S52%10000m1010hPa81%
16-Jun-2024 21:00Light Rain27°C2 mph, SE25%10000m1011hPa79%
17-Jun-2024 00:00Light Rain28°C0 mph, SE16%10000m1011hPa71%
17-Jun-2024 03:00Few Clouds28°C2 mph, SE13%10000m1009hPa73%
17-Jun-2024 06:00Light Rain28°C4 mph, S15%10000m1009hPa75%
17-Jun-2024 09:00Light Rain28°C4 mph, SE26%10000m1010hPa78%
17-Jun-2024 12:00Light Rain27°C4 mph, SE21%10000m1011hPa79%
17-Jun-2024 15:00Clear Sky27°C2 mph, SE6%10000m1010hPa79%
17-Jun-2024 18:00Scattered Clouds27°C4 mph, S36%10000m1010hPa80%
17-Jun-2024 21:00Scattered Clouds27°C2 mph, SE26%10000m1011hPa78%
18-Jun-2024 00:00Few Clouds29°C2 mph, S16%10000m1011hPa72%
18-Jun-2024 03:00Light Rain28°C4 mph, S10%10000m1009hPa74%
18-Jun-2024 06:00Light Rain28°C7 mph, S16%10000m1008hPa77%
18-Jun-2024 09:00Light Rain28°C7 mph, S17%10000m1009hPa78%
18-Jun-2024 12:00Light Rain27°C4 mph, SE13%10000m1010hPa79%
18-Jun-2024 15:00Light Rain27°C4 mph, SE3%10000m1009hPa80%
18-Jun-2024 18:00Light Rain27°C4 mph, S5%10000m1009hPa81%
18-Jun-2024 21:00Light Rain27°C4 mph, SE15%10000m1010hPa79%
19-Jun-2024 00:00Few Clouds29°C2 mph, SE16%10000m1011hPa72%
19-Jun-2024 03:00Light Rain28°C4 mph, SE75%10000m1008hPa73%
19-Jun-2024 06:00Light Rain29°C4 mph, SE78%10000m1007hPa73%
19-Jun-2024 09:00Light Rain28°C4 mph, SE76%10000m1009hPa77%
19-Jun-2024 12:00Light Rain27°C2 mph, SE62%10000m1010hPa78%
19-Jun-2024 15:00Broken Clouds27°C2 mph, SE82%10000m1008hPa79%
19-Jun-2024 18:00Overcast Clouds27°C2 mph, S90%10000m1008hPa80%
19-Jun-2024 21:00Light Rain27°C2 mph, S86%10000m1009hPa79%
20-Jun-2024 00:00Light Rain29°C2 mph, S91%10000m1009hPa71%
20-Jun-2024 03:00Light Rain28°C4 mph, S89%10000m1007hPa75%
20-Jun-2024 06:00Light Rain28°C4 mph, SE95%10000m1007hPa73%
20-Jun-2024 09:00Light Rain28°C4 mph, SE100%10000m1009hPa74%
20-Jun-2024 12:00Light Rain27°C7 mph, E100%10000m1010hPa75%
20-Jun-2024 15:00Light Rain26°C13 mph, E100%10000m1009hPa86%
20-Jun-2024 18:00Light Rain26°C9 mph, SE100%10000m1008hPa81%
20-Jun-2024 21:00Light Rain25°C7 mph, SE100%10000m1010hPa83%